createdAt,value
2023-05-18T00:02:07.744Z,22.81
2023-05-18T00:04:35.090Z,22.83
2023-05-18T00:07:03.523Z,22.85
2023-05-18T00:09:36.904Z,22.82
2023-05-18T00:12:04.727Z,22.81
2023-05-18T00:14:31.644Z,22.85
2023-05-18T00:16:58.482Z,22.83
2023-05-18T00:19:25.415Z,22.85
2023-05-18T00:21:52.407Z,22.84
2023-05-18T00:24:19.231Z,22.83
2023-05-18T00:26:46.694Z,22.81
2023-05-18T00:29:13.673Z,22.81
2023-05-18T00:31:40.590Z,22.82
2023-05-18T00:34:10.950Z,22.81
2023-05-18T00:36:37.800Z,22.77
2023-05-18T00:39:04.867Z,22.80
2023-05-18T00:41:31.781Z,22.79
2023-05-18T00:43:58.943Z,22.77
2023-05-18T00:46:26.612Z,22.83
2023-05-18T00:48:54.009Z,22.79
2023-05-18T00:51:21.462Z,22.79
2023-05-18T00:53:48.230Z,22.77
2023-05-18T00:56:15.165Z,22.79
2023-05-18T00:58:42.286Z,22.78
2023-05-18T01:01:09.349Z,22.76
2023-05-18T01:03:36.598Z,22.77
2023-05-18T01:06:04.349Z,22.76
2023-05-18T01:08:31.203Z,22.76
2023-05-18T01:11:32.804Z,22.76
2023-05-18T01:14:11.585Z,22.76
2023-05-18T01:16:41.810Z,22.73
2023-05-18T01:19:52.950Z,22.71
2023-05-18T01:22:51.076Z,22.70
2023-05-18T01:25:21.602Z,22.71
2023-05-18T01:27:48.338Z,22.68
2023-05-18T01:30:15.910Z,22.70
2023-05-18T01:32:42.815Z,22.69
2023-05-18T01:35:09.742Z,22.69
2023-05-18T01:37:36.567Z,22.72
2023-05-18T01:40:04.556Z,22.68
2023-05-18T01:42:31.445Z,22.70
2023-05-18T01:44:58.951Z,22.69
2023-05-18T01:47:25.852Z,22.69
2023-05-18T01:50:02.638Z,22.68
2023-05-18T01:52:30.038Z,22.68
2023-05-18T01:54:57.775Z,22.70
2023-05-18T01:57:25.941Z,22.67
2023-05-18T01:59:52.659Z,22.65
2023-05-18T02:02:19.508Z,22.68
2023-05-18T02:04:46.352Z,22.69
2023-05-18T02:07:13.052Z,22.65
2023-05-18T02:09:39.837Z,22.65
2023-05-18T02:12:06.977Z,22.67
2023-05-18T02:14:33.760Z,22.64
2023-05-18T02:17:00.469Z,22.67
2023-05-18T02:19:27.516Z,22.67
2023-05-18T02:21:54.301Z,22.67
2023-05-18T02:24:21.000Z,22.66
2023-05-18T02:26:47.698Z,22.62
2023-05-18T02:29:14.664Z,22.60
2023-05-18T02:31:41.560Z,22.62
2023-05-18T02:34:08.341Z,22.64
2023-05-18T02:36:35.165Z,22.64
2023-05-18T02:39:01.905Z,22.64
2023-05-18T02:41:28.601Z,22.62
2023-05-18T02:43:55.350Z,22.63
2023-05-18T02:46:22.256Z,22.65
2023-05-18T02:48:49.096Z,22.56
2023-05-18T02:51:15.952Z,22.58
2023-05-18T02:53:42.731Z,22.60
2023-05-18T02:56:09.744Z,22.57
2023-05-18T02:58:36.501Z,22.60
2023-05-18T03:01:03.426Z,22.62
2023-05-18T03:03:30.381Z,22.63
2023-05-18T03:05:57.153Z,22.62
2023-05-18T03:08:23.887Z,22.62
2023-05-18T03:10:50.725Z,22.60
2023-05-18T03:13:17.605Z,22.60
2023-05-18T03:15:44.433Z,22.57
2023-05-18T03:18:11.795Z,22.58
2023-05-18T03:20:38.757Z,22.58
2023-05-18T03:23:05.645Z,22.62
2023-05-18T03:25:32.583Z,22.58
2023-05-18T03:27:59.592Z,22.58
2023-05-18T03:30:26.310Z,22.58
2023-05-18T03:32:53.244Z,22.62
2023-05-18T03:35:20.183Z,22.58
2023-05-18T03:37:46.930Z,22.58
2023-05-18T03:40:15.068Z,22.56
2023-05-18T03:42:42.349Z,22.54
2023-05-18T03:45:09.757Z,22.58
2023-05-18T03:47:36.846Z,22.58
2023-05-18T03:50:04.221Z,22.60
2023-05-18T03:52:31.616Z,22.60
2023-05-18T03:54:58.432Z,22.59
2023-05-18T03:57:25.226Z,22.58
2023-05-18T03:59:52.065Z,22.55
2023-05-18T04:02:18.868Z,22.58
2023-05-18T04:04:45.681Z,22.57
2023-05-18T04:07:15.454Z,22.52
2023-05-18T04:09:43.122Z,22.55
2023-05-18T04:12:10.447Z,22.50
2023-05-18T04:14:37.322Z,22.51
2023-05-18T04:17:04.245Z,22.50
2023-05-18T04:19:42.606Z,22.52
2023-05-18T04:22:09.373Z,22.59
2023-05-18T04:24:36.191Z,22.55
2023-05-18T04:27:03.226Z,22.56
2023-05-18T04:29:30.198Z,22.54
2023-05-18T04:31:57.125Z,22.50
2023-05-18T04:34:23.894Z,22.56
2023-05-18T04:36:50.746Z,22.56
2023-05-18T04:39:17.459Z,22.56
2023-05-18T04:41:44.227Z,22.52
2023-05-18T04:44:10.973Z,22.58
2023-05-18T04:49:04.358Z,22.64
2023-05-18T04:53:57.892Z,22.58
2023-05-18T05:01:18.439Z,22.63
2023-05-18T05:03:45.382Z,22.65
2023-05-18T05:06:12.184Z,22.65
2023-05-18T05:08:39.090Z,22.74
2023-05-18T05:11:05.848Z,22.75
2023-05-18T05:13:32.593Z,22.74
2023-05-18T05:15:59.462Z,22.75
2023-05-18T05:18:26.336Z,22.70
2023-05-18T05:20:53.413Z,22.74
2023-05-18T05:23:20.220Z,22.71
2023-05-18T05:25:47.030Z,22.73
2023-05-18T05:28:13.827Z,22.79
2023-05-18T05:30:40.550Z,22.75
2023-05-18T05:33:07.422Z,22.72
2023-05-18T05:35:34.493Z,22.71
2023-05-18T05:38:01.582Z,22.70
2023-05-18T05:40:28.376Z,22.70
2023-05-18T05:42:55.204Z,22.73
2023-05-18T05:45:22.050Z,22.69
2023-05-18T05:47:49.168Z,22.74
2023-05-18T05:50:16.032Z,22.74
2023-05-18T05:52:42.867Z,22.72
2023-05-18T05:55:09.620Z,22.80
2023-05-18T05:57:36.399Z,22.82
2023-05-18T06:00:03.599Z,22.84
2023-05-18T06:02:30.433Z,22.88
2023-05-18T06:04:57.207Z,22.82
2023-05-18T06:07:23.989Z,22.89
2023-05-18T06:09:51.042Z,22.88
2023-05-18T06:12:17.815Z,22.88
2023-05-18T06:14:44.647Z,22.88
2023-05-18T06:17:11.481Z,22.91
2023-05-18T06:19:38.256Z,22.89
2023-05-18T06:22:05.340Z,22.90
2023-05-18T06:24:32.179Z,22.89
2023-05-18T06:26:58.895Z,22.90
2023-05-18T06:29:25.719Z,22.94
2023-05-18T06:31:52.583Z,22.96
2023-05-18T06:34:19.376Z,23.00
2023-05-18T06:36:46.120Z,22.98
2023-05-18T06:39:12.899Z,22.97
2023-05-18T06:41:39.708Z,23.00
2023-05-18T06:44:06.470Z,23.01
2023-05-18T06:46:33.299Z,22.97
2023-05-18T06:49:00.116Z,22.96
2023-05-18T06:51:26.967Z,22.99
2023-05-18T06:53:53.796Z,23.02
2023-05-18T06:56:20.625Z,23.04
2023-05-18T06:58:47.402Z,23.04
2023-05-18T07:01:14.317Z,23.02
2023-05-18T07:03:41.238Z,23.05
2023-05-18T07:06:08.162Z,23.06
2023-05-18T07:08:34.980Z,23.09
2023-05-18T07:11:01.720Z,23.17
2023-05-18T07:13:28.482Z,23.21
2023-05-18T07:15:55.353Z,23.21
2023-05-18T07:18:22.205Z,23.28
2023-05-18T07:20:48.978Z,23.29
2023-05-18T07:23:15.791Z,23.27
2023-05-18T07:25:42.590Z,23.23
2023-05-18T07:28:09.346Z,23.24
2023-05-18T07:30:36.081Z,23.31
2023-05-18T07:33:03.091Z,23.33
2023-05-18T07:35:30.142Z,23.35
2023-05-18T07:37:57.046Z,23.33
2023-05-18T07:40:23.760Z,23.32
2023-05-18T07:42:50.495Z,23.29
2023-05-18T07:45:17.236Z,23.22
2023-05-18T07:47:44.262Z,23.21
2023-05-18T07:50:11.279Z,23.23
2023-05-18T07:52:38.018Z,23.23
2023-05-18T07:55:05.162Z,23.21
2023-05-18T07:57:32.007Z,23.19
2023-05-18T07:59:58.866Z,23.18
2023-05-18T08:02:25.916Z,23.22
2023-05-18T08:04:52.766Z,23.21
2023-05-18T08:07:19.553Z,23.19
2023-05-18T08:09:46.397Z,23.24
2023-05-18T08:12:13.156Z,23.26
2023-05-18T08:14:39.979Z,23.28
2023-05-18T08:17:06.842Z,23.29
2023-05-18T08:19:33.624Z,23.25
2023-05-18T08:22:00.475Z,23.26
2023-05-18T08:24:27.277Z,23.32
2023-05-18T08:26:54.093Z,23.30
2023-05-18T08:29:20.872Z,23.28
2023-05-18T08:31:49.331Z,23.35
2023-05-18T08:34:16.557Z,23.37
2023-05-18T08:36:43.320Z,23.35
2023-05-18T08:39:10.160Z,23.35
2023-05-18T08:41:40.858Z,23.31
2023-05-18T08:44:15.198Z,23.28
2023-05-18T08:46:42.089Z,23.33
2023-05-18T08:49:09.935Z,23.35
2023-05-18T08:51:37.170Z,23.36
2023-05-18T08:54:04.944Z,23.36
2023-05-18T08:56:32.511Z,23.36
2023-05-18T08:58:59.313Z,23.30
2023-05-18T09:01:26.458Z,23.33
2023-05-18T09:03:53.457Z,23.39
2023-05-18T09:06:21.831Z,23.45
2023-05-18T09:08:49.724Z,23.42
2023-05-18T09:11:16.594Z,23.42
2023-05-18T09:13:43.345Z,23.41
2023-05-18T09:16:10.241Z,23.49
2023-05-18T09:18:37.161Z,23.47
2023-05-18T09:21:03.999Z,23.52
2023-05-18T09:23:30.774Z,23.54
2023-05-18T09:25:57.640Z,23.57
2023-05-18T09:28:28.035Z,23.61
2023-05-18T09:30:54.927Z,23.55
2023-05-18T09:33:21.994Z,23.60
2023-05-18T09:35:50.443Z,23.65
2023-05-18T09:38:17.901Z,23.67
2023-05-18T09:40:46.056Z,23.61
2023-05-18T09:43:12.862Z,23.60
2023-05-18T09:45:43.067Z,23.60
2023-05-18T09:48:10.201Z,23.65
2023-05-18T09:50:37.145Z,23.58
2023-05-18T09:53:06.859Z,23.59
2023-05-18T09:55:33.796Z,23.61
2023-05-18T09:58:00.680Z,23.58
2023-05-18T10:00:27.440Z,23.61
2023-05-18T10:02:54.316Z,23.56
2023-05-18T10:05:22.252Z,23.59
2023-05-18T10:07:50.135Z,23.66
2023-05-18T10:10:21.023Z,23.73
2023-05-18T10:12:48.065Z,23.74
2023-05-18T10:15:15.670Z,23.70
2023-05-18T10:17:43.488Z,23.69
2023-05-18T10:20:10.759Z,23.64
2023-05-18T10:22:37.693Z,23.65
2023-05-18T10:25:05.087Z,23.63
2023-05-18T10:27:34.655Z,23.64
2023-05-18T10:30:01.512Z,23.63
2023-05-18T10:32:28.397Z,23.72
2023-05-18T10:34:56.593Z,23.85
2023-05-18T10:37:23.627Z,23.82
2023-05-18T10:39:54.064Z,23.92
2023-05-18T10:42:20.849Z,23.94
2023-05-18T10:44:47.825Z,23.97
2023-05-18T10:47:15.158Z,24.02
2023-05-18T10:49:47.483Z,23.97
2023-05-18T10:52:14.227Z,23.95
2023-05-18T10:54:41.019Z,23.88
2023-05-18T10:57:07.844Z,23.87
2023-05-18T10:59:34.641Z,23.82
2023-05-18T11:02:01.437Z,23.83
2023-05-18T11:04:28.345Z,23.80
2023-05-18T11:06:58.334Z,23.81
2023-05-18T11:09:25.378Z,23.83
2023-05-18T11:11:59.005Z,23.73
2023-05-18T11:14:30.104Z,23.73
2023-05-18T11:17:16.856Z,23.74
2023-05-18T11:20:05.311Z,23.87
2023-05-18T11:22:50.581Z,23.87
2023-05-18T11:25:32.340Z,23.90
2023-05-18T11:28:00.450Z,23.99
2023-05-18T11:30:47.623Z,23.92
2023-05-18T11:33:15.094Z,23.88
2023-05-18T11:36:03.471Z,23.88
2023-05-18T11:38:50.062Z,23.87
2023-05-18T11:41:33.051Z,23.85
2023-05-18T11:44:12.104Z,23.83
2023-05-18T11:46:54.979Z,23.85
2023-05-18T11:49:25.871Z,23.82
2023-05-18T11:51:57.223Z,23.93
2023-05-18T11:54:28.450Z,23.87
2023-05-18T11:56:55.394Z,23.94
2023-05-18T11:59:39.241Z,24.02
2023-05-18T12:02:06.310Z,24.12
2023-05-18T12:04:33.646Z,24.08
2023-05-18T12:07:00.688Z,24.06
2023-05-18T12:09:27.508Z,24.03
2023-05-18T12:11:55.101Z,24.01
2023-05-18T12:14:21.909Z,24.02
2023-05-18T12:16:48.654Z,24.00
2023-05-18T12:19:15.887Z,24.02
2023-05-18T12:21:42.750Z,23.95
2023-05-18T12:24:09.645Z,24.03
2023-05-18T12:26:36.657Z,23.96
2023-05-18T12:29:03.501Z,24.07
2023-05-18T12:31:30.417Z,24.05
2023-05-18T12:33:59.215Z,24.02
2023-05-18T12:36:26.305Z,23.97
2023-05-18T12:38:53.072Z,23.95
2023-05-18T12:41:23.806Z,23.88
2023-05-18T12:43:50.654Z,23.85
2023-05-18T12:46:17.570Z,23.85
2023-05-18T12:48:47.415Z,23.85
2023-05-18T12:51:20.317Z,24.06
2023-05-18T12:53:49.371Z,24.22
2023-05-18T12:56:16.182Z,24.22
2023-05-18T12:58:58.322Z,24.29
2023-05-18T13:01:25.187Z,24.38
2023-05-18T13:03:58.442Z,24.45
2023-05-18T13:06:25.639Z,24.37
2023-05-18T13:08:55.515Z,24.38
2023-05-18T13:11:24.814Z,24.23
2023-05-18T13:14:01.608Z,24.06
2023-05-18T13:16:28.461Z,24.08
2023-05-18T13:19:02.702Z,24.05
2023-05-18T13:21:29.875Z,24.10
2023-05-18T13:23:56.762Z,24.15
2023-05-18T13:26:24.109Z,24.25
2023-05-18T13:28:52.677Z,24.20
2023-05-18T13:31:19.634Z,24.11
2023-05-18T13:33:46.972Z,24.12
2023-05-18T13:36:13.841Z,24.06
2023-05-18T13:38:40.655Z,24.08
2023-05-18T13:41:08.862Z,23.94
2023-05-18T13:43:35.709Z,23.97
2023-05-18T13:46:02.565Z,23.92
2023-05-18T13:48:30.500Z,23.89
2023-05-18T13:50:57.348Z,23.95
2023-05-18T13:53:24.158Z,23.94
2023-05-18T13:55:50.979Z,24.02
2023-05-18T13:58:17.804Z,23.96
2023-05-18T14:00:44.629Z,24.02
2023-05-18T14:03:11.536Z,24.08
2023-05-18T14:05:38.753Z,24.03
2023-05-18T14:08:05.942Z,23.97
2023-05-18T14:10:33.095Z,23.95
2023-05-18T14:13:00.205Z,24.01
2023-05-18T14:15:27.025Z,23.99
2023-05-18T14:17:53.829Z,23.93
2023-05-18T14:20:23.277Z,23.86
2023-05-18T14:22:50.048Z,23.81
2023-05-18T14:25:17.006Z,23.68
2023-05-18T14:27:43.820Z,23.60
2023-05-18T14:30:10.889Z,23.51
2023-05-18T14:32:37.808Z,23.53
2023-05-18T14:35:05.008Z,23.37
2023-05-18T14:37:31.862Z,23.29
2023-05-18T14:39:58.682Z,23.25
2023-05-18T14:42:25.607Z,23.20
2023-05-18T14:44:52.550Z,23.12
2023-05-18T14:47:19.339Z,23.06
2023-05-18T14:49:46.142Z,22.93
2023-05-18T14:52:12.942Z,22.90
2023-05-18T14:54:39.720Z,22.94
2023-05-18T14:57:06.536Z,22.96
2023-05-18T14:59:33.336Z,22.97
2023-05-18T15:02:00.281Z,22.96
2023-05-18T15:04:27.155Z,22.93
2023-05-18T15:06:54.004Z,23.11
2023-05-18T15:09:20.908Z,23.54
2023-05-18T15:11:47.675Z,23.70
2023-05-18T15:14:14.520Z,23.76
2023-05-18T15:16:41.550Z,25.18
2023-05-18T15:19:08.521Z,24.69
2023-05-18T15:21:35.457Z,24.43
2023-05-18T15:24:02.257Z,24.34
2023-05-18T15:26:29.111Z,24.26
2023-05-18T15:28:55.946Z,24.21
2023-05-18T15:31:22.810Z,24.08
2023-05-18T15:33:49.677Z,24.16
2023-05-18T15:36:16.461Z,24.37
2023-05-18T15:38:43.217Z,25.79
2023-05-18T15:41:10.053Z,26.31
2023-05-18T15:43:36.937Z,26.71
2023-05-18T15:46:03.782Z,27.35
2023-05-18T15:48:31.834Z,26.49
2023-05-18T15:50:58.641Z,26.27
2023-05-18T15:53:25.465Z,26.61
2023-05-18T15:55:52.251Z,26.94
2023-05-18T15:58:19.038Z,26.71
2023-05-18T16:00:45.771Z,26.26
2023-05-18T16:03:12.760Z,26.08
2023-05-18T16:05:39.869Z,25.79
2023-05-18T16:08:06.815Z,25.45
2023-05-18T16:10:33.972Z,25.35
2023-05-18T16:13:00.862Z,25.35
2023-05-18T16:15:27.724Z,25.54
2023-05-18T16:17:54.575Z,25.49
2023-05-18T16:20:21.474Z,26.72
2023-05-18T16:22:48.186Z,27.07
2023-05-18T16:25:15.113Z,26.26
2023-05-18T16:27:41.977Z,25.60
2023-05-18T16:30:09.232Z,25.28
2023-05-18T16:32:35.986Z,24.98
2023-05-18T16:35:02.755Z,24.70
2023-05-18T16:37:29.610Z,24.49
2023-05-18T16:39:56.419Z,24.41
2023-05-18T16:42:23.234Z,24.26
2023-05-18T16:44:49.987Z,24.12
2023-05-18T16:47:16.774Z,24.12
2023-05-18T16:49:43.647Z,24.07
2023-05-18T16:52:10.512Z,24.03
2023-05-18T16:54:37.317Z,23.98
2023-05-18T16:57:04.283Z,23.93
2023-05-18T16:59:31.112Z,23.90
2023-05-18T17:01:58.104Z,23.85
2023-05-18T17:04:24.900Z,23.77
2023-05-18T17:06:52.193Z,23.78
2023-05-18T17:09:18.913Z,23.64
2023-05-18T17:11:45.631Z,23.65
2023-05-18T17:14:12.367Z,23.60
2023-05-18T17:16:39.165Z,23.57
2023-05-18T17:19:06.402Z,23.59
2023-05-18T17:21:33.417Z,23.59
2023-05-18T17:24:00.302Z,23.54
2023-05-18T17:26:27.044Z,23.50
2023-05-18T17:28:53.787Z,23.54
2023-05-18T17:31:20.579Z,23.45
2023-05-18T17:33:47.438Z,23.54
2023-05-18T17:36:14.347Z,23.47
2023-05-18T17:38:41.042Z,23.50
2023-05-18T17:41:07.767Z,23.51
2023-05-18T17:43:34.516Z,23.50
2023-05-18T17:46:01.384Z,23.50
2023-05-18T17:48:28.182Z,23.50
2023-05-18T17:50:55.124Z,23.51
2023-05-18T17:53:21.884Z,23.48
2023-05-18T17:55:48.678Z,23.49
2023-05-18T17:58:15.516Z,23.49
2023-05-18T18:00:42.305Z,23.47
2023-05-18T18:03:09.296Z,23.45
2023-05-18T18:05:36.180Z,23.46
2023-05-18T18:08:02.894Z,23.37
2023-05-18T18:10:29.801Z,23.39
2023-05-18T18:12:56.756Z,23.35
2023-05-18T18:15:23.501Z,23.35
2023-05-18T18:17:50.404Z,23.38
2023-05-18T18:20:17.221Z,23.33
2023-05-18T18:22:44.050Z,23.31
2023-05-18T18:25:10.826Z,23.30
2023-05-18T18:27:37.657Z,23.26
2023-05-18T18:30:05.532Z,23.21
2023-05-18T18:32:32.402Z,23.23
2023-05-18T18:34:59.245Z,23.23
2023-05-18T18:37:26.100Z,23.17
2023-05-18T18:39:52.923Z,23.19
2023-05-18T18:42:21.502Z,23.15
2023-05-18T18:44:48.582Z,23.11
2023-05-18T18:47:15.310Z,23.17
2023-05-18T18:49:42.056Z,23.16
2023-05-18T18:52:09.890Z,23.16
2023-05-18T18:54:38.063Z,23.11
2023-05-18T18:57:05.249Z,23.12
2023-05-18T18:59:32.001Z,23.14
2023-05-18T19:01:58.820Z,23.09
2023-05-18T19:04:25.626Z,23.11
2023-05-18T19:06:52.436Z,23.11
2023-05-18T19:09:19.296Z,23.09
2023-05-18T19:11:46.009Z,23.08
2023-05-18T19:14:12.932Z,23.06
2023-05-18T19:16:40.908Z,23.03
2023-05-18T19:19:07.873Z,23.09
2023-05-18T19:21:35.126Z,23.08
2023-05-18T19:24:02.970Z,23.07
2023-05-18T19:26:29.959Z,23.07
2023-05-18T19:28:57.238Z,23.08
2023-05-18T19:31:24.369Z,23.08
2023-05-18T19:33:51.411Z,23.10
2023-05-18T19:36:18.244Z,23.09
2023-05-18T19:38:45.064Z,23.07
2023-05-18T19:41:11.882Z,23.10
2023-05-18T19:43:38.824Z,23.06
2023-05-18T19:46:06.595Z,23.06
2023-05-18T19:48:33.540Z,23.10
2023-05-18T19:51:00.407Z,23.08
2023-05-18T19:53:27.243Z,23.08
2023-05-18T19:55:54.020Z,23.12
2023-05-18T19:58:20.779Z,23.06
2023-05-18T20:00:47.608Z,23.07
2023-05-18T20:03:14.579Z,23.11
2023-05-18T20:05:41.388Z,23.13
2023-05-18T20:08:08.219Z,23.11
2023-05-18T20:10:36.043Z,23.17
2023-05-18T20:13:02.931Z,23.12
2023-05-18T20:15:29.764Z,23.05
2023-05-18T20:17:56.705Z,23.12
2023-05-18T20:20:23.701Z,23.15
2023-05-18T20:22:50.392Z,23.11
2023-05-18T20:25:17.276Z,23.12
2023-05-18T20:27:44.094Z,23.16
2023-05-18T20:30:11.072Z,23.08
2023-05-18T20:32:37.924Z,23.08
2023-05-18T20:35:04.908Z,23.07
2023-05-18T20:37:31.690Z,22.98
2023-05-18T20:39:58.448Z,23.02
2023-05-18T20:42:30.154Z,23.02
2023-05-18T20:44:57.036Z,23.08
2023-05-18T20:47:23.896Z,23.08
2023-05-18T20:49:50.678Z,23.12
2023-05-18T20:52:17.462Z,23.02
2023-05-18T20:54:44.238Z,23.07
2023-05-18T20:57:11.136Z,23.11
2023-05-18T20:59:37.952Z,23.03
2023-05-18T21:02:05.083Z,23.01
2023-05-18T21:04:31.938Z,23.07
2023-05-18T21:06:58.871Z,23.05
2023-05-18T21:09:28.826Z,23.04
2023-05-18T21:11:55.777Z,22.99
2023-05-18T21:14:22.583Z,22.97
2023-05-18T21:16:49.429Z,22.99
2023-05-18T21:19:16.359Z,23.00
2023-05-18T21:21:43.320Z,22.96
2023-05-18T21:24:10.179Z,23.01
2023-05-18T21:26:37.022Z,23.08
2023-05-18T21:29:03.739Z,23.00
2023-05-18T21:31:30.632Z,22.95
2023-05-18T21:33:57.521Z,22.97
2023-05-18T21:36:27.468Z,22.99
2023-05-18T21:38:54.247Z,23.00
2023-05-18T21:41:20.976Z,22.92
2023-05-18T21:43:47.767Z,22.95
2023-05-18T21:46:14.626Z,22.98
2023-05-18T21:48:41.509Z,23.01
2023-05-18T21:51:08.323Z,22.98
2023-05-18T21:53:35.191Z,22.94
2023-05-18T21:56:02.011Z,22.93
2023-05-18T21:58:28.905Z,22.96
2023-05-18T22:00:55.735Z,22.88
2023-05-18T22:03:22.630Z,22.90
2023-05-18T22:05:50.155Z,22.88
2023-05-18T22:08:16.970Z,22.95
2023-05-18T22:10:43.764Z,22.90
2023-05-18T22:13:10.556Z,22.95
2023-05-18T22:15:37.452Z,22.94
2023-05-18T22:18:04.567Z,22.89
2023-05-18T22:20:34.825Z,22.96
2023-05-18T22:23:01.782Z,22.91
2023-05-18T22:25:28.812Z,22.90
2023-05-18T22:27:55.626Z,22.95
2023-05-18T22:30:22.411Z,22.89
2023-05-18T22:32:50.347Z,22.84
2023-05-18T22:35:17.292Z,22.86
2023-05-18T22:37:45.417Z,22.90
2023-05-18T22:40:12.665Z,22.88
2023-05-18T22:42:39.424Z,22.91
2023-05-18T22:45:06.769Z,22.93
2023-05-18T22:47:33.791Z,22.86
2023-05-18T22:50:00.742Z,22.87
2023-05-18T22:52:27.576Z,22.85
2023-05-18T22:54:54.442Z,22.90
2023-05-18T22:57:21.143Z,22.88
2023-05-18T22:59:47.969Z,22.90
2023-05-18T23:02:14.965Z,22.89
2023-05-18T23:04:41.990Z,22.89
2023-05-18T23:07:08.903Z,22.90
2023-05-18T23:09:35.771Z,22.91
2023-05-18T23:12:02.637Z,22.88
2023-05-18T23:14:29.399Z,22.90
2023-05-18T23:16:56.300Z,22.86
2023-05-18T23:19:23.039Z,22.90
2023-05-18T23:21:49.783Z,22.88
2023-05-18T23:24:16.585Z,22.87
2023-05-18T23:26:43.818Z,22.88
2023-05-18T23:29:10.682Z,22.83
2023-05-18T23:31:37.700Z,22.81
2023-05-18T23:34:04.756Z,22.86
2023-05-18T23:36:32.355Z,22.87
2023-05-18T23:38:59.256Z,22.87
2023-05-18T23:41:26.694Z,22.84
2023-05-18T23:43:53.811Z,22.80
2023-05-18T23:46:21.316Z,22.79
2023-05-18T23:48:48.718Z,22.84
2023-05-18T23:51:16.581Z,22.86
2023-05-18T23:53:50.993Z,22.85
2023-05-18T23:56:18.163Z,22.86
2023-05-18T23:58:45.540Z,22.85
